Hartland, Michigan
Current Conditions -  °F | °C
As of 7:15 PM on Friday 24 Oct 2014 (Local Time) from KOZW Reporting Station
Overcast Overcast  
Wind Chill: 56°   Ceiling: 4200
Heat Index: 56°   Visibility: 10mi
Dew Point: 47°   Wind: 3mph
Humidity: 71%   Direction: 230°SW
Pressure: 29.97"   Gusts: NA
Location:  42.66°N, 83.75°W
Report Text: KOZW 242315Z AUTO 23003KT 10SM OVC042 13/08 A2997 RMK AO2 T01320081
Loading
Personal Weather Stations






























Interactive Weather Map
Tropical Storm Tracking
New forecast layout! Learn more

10-Day Weather Forecast

Advertisements
Track Severe Weather on mobile